createdAt,value
2018-01-27T00:09:13.916Z,20.60
2018-01-27T00:11:43.344Z,17.87
2018-01-27T00:14:11.734Z,18.30
2018-01-27T00:16:40.191Z,17.93
2018-01-27T00:19:08.391Z,20.63
2018-01-27T00:21:37.116Z,18.93
2018-01-27T00:24:06.329Z,22.00
2018-01-27T00:26:36.527Z,18.57
2018-01-27T00:29:04.625Z,19.60
2018-01-27T00:48:50.401Z,21.20
2018-01-27T00:51:20.335Z,21.93
2018-01-27T00:53:49.174Z,21.60
2018-01-27T00:56:17.796Z,22.10
2018-01-27T00:58:46.061Z,21.03
2018-01-27T01:01:14.796Z,22.00
2018-01-27T01:03:44.438Z,23.00
2018-01-27T01:06:13.667Z,22.97
2018-01-27T01:08:42.037Z,21.83
2018-01-27T01:28:27.825Z,22.70
2018-01-27T01:30:57.494Z,24.77
2018-01-27T01:33:27.530Z,24.33
2018-01-27T01:35:55.635Z,25.10
2018-01-27T01:38:24.227Z,28.20
2018-01-27T01:40:52.381Z,27.00
2018-01-27T01:43:20.792Z,27.87
2018-01-27T01:45:48.941Z,27.10
2018-01-27T01:48:16.956Z,28.00
2018-01-27T02:08:02.252Z,26.63
2018-01-27T02:10:30.614Z,25.87
2018-01-27T02:12:59.826Z,29.37
2018-01-27T02:15:29.186Z,26.87
2018-01-27T02:17:58.935Z,27.77
2018-01-27T02:20:28.474Z,27.20
2018-01-27T02:22:56.701Z,25.97
2018-01-27T02:25:25.813Z,30.10
2018-01-27T02:27:54.633Z,30.40
2018-01-27T02:47:41.567Z,28.37
2018-01-27T02:50:10.363Z,27.33
2018-01-27T02:52:38.747Z,25.97
2018-01-27T02:55:07.431Z,27.80
2018-01-27T02:57:35.978Z,26.53
2018-01-27T03:00:04.319Z,27.70
2018-01-27T03:02:32.853Z,28.80
2018-01-27T03:05:01.335Z,27.20
2018-01-27T03:07:30.492Z,26.73
2018-01-27T03:27:15.741Z,29.20
2018-01-27T03:29:44.815Z,29.43
2018-01-27T03:32:13.214Z,32.07
2018-01-27T03:34:41.517Z,29.73
2018-01-27T03:37:10.151Z,30.27
2018-01-27T03:39:40.092Z,29.03
2018-01-27T03:42:08.600Z,31.37
2018-01-27T03:44:37.885Z,26.27
2018-01-27T03:47:06.231Z,27.87
2018-01-27T04:06:52.129Z,27.37
2018-01-27T04:09:20.679Z,28.07
2018-01-27T04:11:49.008Z,26.87
2018-01-27T04:14:17.448Z,27.57
2018-01-27T04:16:46.055Z,29.67
2018-01-27T04:19:14.448Z,29.00
2018-01-27T04:21:43.149Z,29.60
2018-01-27T04:24:12.197Z,29.17
2018-01-27T04:26:40.569Z,28.27
2018-01-27T04:46:25.422Z,30.07
2018-01-27T04:48:53.960Z,34.90
2018-01-27T04:51:22.349Z,35.53
2018-01-27T04:53:51.005Z,32.50
2018-01-27T04:56:20.082Z,31.43
2018-01-27T04:58:50.386Z,32.00
2018-01-27T05:01:19.716Z,31.87
2018-01-27T05:03:47.999Z,32.33
2018-01-27T05:06:16.029Z,33.27
2018-01-27T05:26:02.522Z,32.88
2018-01-27T05:28:30.913Z,34.42
2018-01-27T05:30:59.432Z,35.07
2018-01-27T05:33:27.881Z,33.80
2018-01-27T05:35:56.827Z,33.10
2018-01-27T05:38:25.948Z,30.27
2018-01-27T05:40:54.503Z,34.37
2018-01-27T05:43:22.711Z,31.90
2018-01-27T05:45:51.421Z,31.27
2018-01-27T06:05:36.258Z,29.07
2018-01-27T06:08:04.947Z,29.03
2018-01-27T06:10:33.253Z,29.07
2018-01-27T06:13:02.310Z,27.67
2018-01-27T06:15:31.428Z,28.63
2018-01-27T06:18:00.127Z,27.63
2018-01-27T06:20:28.368Z,27.07
2018-01-27T06:22:56.952Z,26.17
2018-01-27T06:25:26.529Z,27.47
2018-01-27T06:45:11.397Z,27.40
2018-01-27T06:47:40.793Z,26.30
2018-01-27T06:50:09.508Z,28.10
2018-01-27T06:52:38.061Z,25.50
2018-01-27T06:55:07.010Z,22.37
2018-01-27T06:57:35.124Z,23.50
2018-01-27T07:00:04.955Z,22.97
2018-01-27T07:02:33.097Z,24.67
2018-01-27T07:05:03.130Z,23.40
2018-01-27T07:24:47.068Z,22.67
2018-01-27T07:27:15.723Z,21.77
2018-01-27T07:29:45.169Z,22.50
2018-01-27T07:32:14.002Z,22.60
2018-01-27T07:34:43.911Z,22.27
2018-01-27T07:37:11.969Z,20.97
2018-01-27T07:39:40.513Z,21.80
2018-01-27T07:42:09.638Z,20.80
2018-01-27T07:44:38.654Z,21.83
2018-01-27T08:04:23.246Z,22.60
2018-01-27T08:06:52.165Z,21.67
2018-01-27T08:09:21.513Z,20.93
2018-01-27T08:11:50.609Z,21.50
2018-01-27T08:14:19.497Z,23.17
2018-01-27T08:16:48.129Z,20.73
2018-01-27T08:19:16.685Z,24.70
2018-01-27T08:21:45.564Z,22.53
2018-01-27T08:24:14.640Z,21.27
2018-01-27T08:43:58.913Z,22.00
2018-01-27T08:46:27.767Z,23.20
2018-01-27T08:48:57.294Z,23.80
2018-01-27T08:51:26.002Z,20.60
2018-01-27T08:53:55.208Z,23.97
2018-01-27T08:56:23.372Z,23.10
2018-01-27T08:58:52.052Z,21.43
2018-01-27T09:01:21.045Z,23.37
2018-01-27T09:03:50.841Z,22.67
2018-01-27T09:23:36.021Z,22.87
2018-01-27T09:26:04.838Z,21.63
2018-01-27T09:28:33.485Z,21.60
2018-01-27T09:31:02.307Z,23.83
2018-01-27T09:33:30.778Z,22.47
2018-01-27T09:35:59.733Z,20.80
2018-01-27T09:38:29.797Z,24.27
2018-01-27T09:40:58.186Z,21.70
2018-01-27T09:43:26.971Z,23.27
2018-01-27T10:03:12.782Z,20.80
2018-01-27T10:05:41.074Z,21.23
2018-01-27T10:08:09.761Z,21.20
2018-01-27T10:10:38.077Z,19.77
2018-01-27T10:13:06.855Z,19.43
2018-01-27T10:15:37.098Z,21.77
2018-01-27T10:18:06.003Z,21.60
2018-01-27T10:20:34.763Z,20.83
2018-01-27T10:23:03.429Z,21.93
2018-01-27T10:42:48.871Z,21.13
2018-01-27T10:45:17.350Z,19.23
2018-01-27T10:47:45.640Z,19.53
2018-01-27T10:50:14.245Z,20.67
2018-01-27T10:52:44.363Z,19.27
2018-01-27T10:55:12.568Z,19.37
2018-01-27T10:57:43.407Z,20.13
2018-01-27T11:00:11.738Z,18.83
2018-01-27T11:02:40.804Z,18.37
2018-01-27T11:22:27.217Z,19.40
2018-01-27T11:24:55.963Z,19.03
2018-01-27T11:27:25.836Z,19.07
2018-01-27T11:29:54.212Z,18.43
2018-01-27T11:32:22.597Z,20.47
2018-01-27T11:34:50.845Z,20.67
2018-01-27T11:37:18.979Z,20.27
2018-01-27T11:39:48.291Z,19.70
2018-01-27T11:42:17.275Z,20.00
2018-01-27T12:02:03.100Z,18.53
2018-01-27T12:04:31.535Z,18.67
2018-01-27T12:06:59.795Z,16.37
2018-01-27T12:09:28.468Z,18.10
2018-01-27T12:11:57.192Z,18.60
2018-01-27T12:14:26.824Z,16.30
2018-01-27T12:16:56.162Z,18.50
2018-01-27T12:19:25.422Z,18.87
2018-01-27T12:21:54.379Z,17.40
2018-01-27T12:41:41.073Z,15.60
2018-01-27T12:44:09.593Z,15.30
2018-01-27T12:46:39.689Z,14.60
2018-01-27T12:49:08.196Z,14.77
2018-01-27T12:51:36.479Z,15.37
2018-01-27T12:54:05.389Z,15.23
2018-01-27T12:56:35.059Z,15.47
2018-01-27T12:59:04.299Z,14.03
2018-01-27T13:01:33.254Z,15.20
2018-01-27T13:21:18.742Z,13.43
2018-01-27T13:23:48.403Z,13.20
2018-01-27T13:26:17.003Z,15.23
2018-01-27T13:28:45.531Z,13.73
2018-01-27T13:31:14.008Z,13.97
2018-01-27T13:33:43.529Z,14.93
2018-01-27T13:36:12.038Z,12.87
2018-01-27T13:38:40.141Z,13.10
2018-01-27T13:41:09.956Z,13.27
2018-01-27T14:00:54.286Z,15.60
2018-01-27T14:03:22.467Z,14.80
2018-01-27T14:05:51.177Z,15.33
2018-01-27T14:08:20.483Z,13.73
2018-01-27T14:10:50.445Z,12.57
2018-01-27T14:13:19.366Z,14.00
2018-01-27T14:15:49.540Z,14.50
2018-01-27T14:18:18.169Z,14.73
2018-01-27T14:20:47.933Z,12.93
2018-01-27T14:40:32.059Z,17.27
2018-01-27T14:43:01.009Z,14.30
2018-01-27T14:45:30.602Z,13.70
2018-01-27T14:47:58.770Z,14.10
2018-01-27T14:50:27.655Z,14.80
2018-01-27T14:52:55.764Z,14.50
2018-01-27T14:55:24.581Z,14.00
2018-01-27T14:57:52.719Z,14.83
2018-01-27T15:00:21.876Z,13.57
2018-01-27T15:20:08.882Z,14.97
2018-01-27T15:22:37.664Z,14.47
2018-01-27T15:25:06.817Z,13.60
2018-01-27T15:27:35.191Z,16.17
2018-01-27T15:30:03.720Z,22.13
2018-01-27T15:32:31.926Z,15.40
2018-01-27T15:35:01.317Z,16.10
2018-01-27T15:37:30.306Z,13.37
2018-01-27T15:39:58.951Z,14.20
2018-01-27T15:59:44.846Z,13.73
2018-01-27T16:02:14.148Z,13.30
2018-01-27T16:04:43.972Z,13.00
2018-01-27T16:07:12.926Z,12.70
2018-01-27T16:09:41.983Z,13.33
2018-01-27T16:12:11.566Z,13.50
2018-01-27T16:14:41.953Z,19.00
2018-01-27T16:17:11.282Z,13.73
2018-01-27T16:19:40.142Z,14.80
2018-01-27T16:39:25.968Z,14.80
2018-01-27T16:41:55.395Z,15.50
2018-01-27T16:44:24.548Z,15.93
2018-01-27T16:46:53.037Z,16.40
2018-01-27T16:49:22.274Z,16.23
2018-01-27T16:51:51.989Z,15.40
2018-01-27T16:54:20.466Z,16.73
2018-01-27T16:56:49.440Z,17.97
2018-01-27T16:59:17.783Z,19.33
2018-01-27T17:19:03.245Z,19.70
2018-01-27T17:21:32.142Z,18.63
2018-01-27T17:24:00.204Z,20.47
2018-01-27T17:26:28.935Z,20.80
2018-01-27T17:28:57.826Z,20.67
2018-01-27T17:31:25.981Z,19.30
2018-01-27T17:33:55.656Z,21.03
2018-01-27T17:36:24.842Z,21.20
2018-01-27T17:38:53.099Z,21.43
2018-01-27T17:58:38.303Z,22.90
2018-01-27T18:01:07.414Z,22.00
2018-01-27T18:03:36.538Z,22.77
2018-01-27T18:06:05.406Z,21.13
2018-01-27T18:08:34.453Z,21.40
2018-01-27T18:11:02.497Z,20.67
2018-01-27T18:13:31.873Z,21.20
2018-01-27T18:16:00.414Z,20.03
2018-01-27T18:18:28.641Z,20.83
2018-01-27T18:38:14.672Z,21.80
2018-01-27T18:40:43.014Z,20.20
2018-01-27T18:43:11.685Z,21.40
2018-01-27T18:45:39.834Z,20.20
2018-01-27T18:48:09.094Z,21.27
2018-01-27T18:50:38.294Z,22.60
2018-01-27T18:53:06.686Z,23.53
2018-01-27T18:55:36.080Z,21.93
2018-01-27T18:58:05.053Z,21.40
2018-01-27T19:17:50.293Z,21.87
2018-01-27T19:20:19.476Z,22.20
2018-01-27T19:22:48.581Z,24.00
2018-01-27T19:25:18.224Z,22.63
2018-01-27T19:27:46.438Z,22.07
2018-01-27T19:30:15.800Z,22.20
2018-01-27T19:32:45.215Z,24.67
2018-01-27T19:35:13.495Z,21.90
2018-01-27T19:37:43.575Z,23.70
2018-01-27T19:57:28.235Z,22.83
2018-01-27T19:59:56.928Z,23.30
2018-01-27T20:02:25.670Z,23.63
2018-01-27T20:04:54.342Z,21.73
2018-01-27T20:07:24.109Z,21.83
2018-01-27T20:09:52.398Z,22.33
2018-01-27T20:12:23.442Z,23.47
2018-01-27T20:14:51.668Z,23.50
2018-01-27T20:17:19.897Z,25.37
2018-01-27T20:37:04.542Z,23.50
2018-01-27T20:39:34.090Z,25.00
2018-01-27T20:42:02.443Z,23.33
2018-01-27T20:44:32.094Z,24.40
2018-01-27T20:47:01.658Z,25.70
2018-01-27T20:49:30.627Z,22.50
2018-01-27T20:51:59.307Z,23.97
2018-01-27T20:54:28.336Z,24.47
2018-01-27T20:56:56.887Z,26.47
2018-01-27T21:16:41.858Z,25.77
2018-01-27T21:19:10.933Z,23.83
2018-01-27T21:21:39.418Z,24.70
2018-01-27T21:24:08.727Z,25.57
2018-01-27T21:26:38.018Z,25.47
2018-01-27T21:29:06.436Z,24.00
2018-01-27T21:31:34.810Z,25.87
2018-01-27T21:34:03.782Z,24.23
2018-01-27T21:36:33.506Z,25.50
2018-01-27T21:56:18.965Z,24.83
2018-01-27T21:58:48.621Z,26.97
2018-01-27T22:01:17.876Z,26.40
2018-01-27T22:03:47.094Z,25.93
2018-01-27T22:06:15.434Z,28.33
2018-01-27T22:08:44.932Z,28.50
2018-01-27T22:11:13.695Z,33.80
2018-01-27T22:13:42.402Z,29.47
2018-01-27T22:16:12.078Z,26.30
2018-01-27T22:35:57.904Z,29.87
2018-01-27T22:38:27.265Z,29.33
2018-01-27T22:40:55.563Z,29.67
2018-01-27T22:43:24.225Z,28.70
2018-01-27T22:45:52.820Z,28.90
2018-01-27T22:48:21.310Z,29.17
2018-01-27T22:50:50.796Z,29.30
2018-01-27T22:53:19.484Z,29.80
2018-01-27T22:55:49.860Z,28.47
2018-01-27T23:15:34.345Z,25.27
2018-01-27T23:18:03.607Z,27.33
2018-01-27T23:20:32.814Z,24.87
2018-01-27T23:23:01.333Z,25.60
2018-01-27T23:25:30.696Z,23.50
2018-01-27T23:27:59.881Z,24.70
2018-01-27T23:30:28.357Z,21.77
2018-01-27T23:32:57.582Z,23.43
2018-01-27T23:35:26.840Z,21.60
2018-01-27T23:55:12.951Z,19.77
2018-01-27T23:57:41.026Z,16.13
